sensor_id;sensor_type;location;lat;lon;timestamp;temperature;humidity
17172;DHT22;8701;50.150;8.756;2022-12-18T00:02:19;-5.10;99.90
17172;DHT22;8701;50.150;8.756;2022-12-18T00:06:24;-5.30;99.90
17172;DHT22;8701;50.150;8.756;2022-12-18T00:10:27;-5.30;99.90
17172;DHT22;8701;50.150;8.756;2022-12-18T00:14:31;-5.30;99.90
17172;DHT22;8701;50.150;8.756;2022-12-18T00:18:33;-5.20;99.90
17172;DHT22;8701;50.150;8.756;2022-12-18T00:22:37;-5.30;99.90
17172;DHT22;8701;50.150;8.756;2022-12-18T00:26:42;-5.40;99.90
17172;DHT22;8701;50.150;8.756;2022-12-18T00:30:48;-5.40;99.90
17172;DHT22;8701;50.150;8.756;2022-12-18T00:34:52;-5.10;99.90
17172;DHT22;8701;50.150;8.756;2022-12-18T00:38:57;-5.50;99.90
17172;DHT22;8701;50.150;8.756;2022-12-18T00:43:01;-5.40;99.90
17172;DHT22;8701;50.150;8.756;2022-12-18T00:47:09;-5.10;99.90
17172;DHT22;8701;50.150;8.756;2022-12-18T00:51:13;-5.30;99.90
17172;DHT22;8701;50.150;8.756;2022-12-18T00:55:16;-5.30;99.90
17172;DHT22;8701;50.150;8.756;2022-12-18T00:59:21;-5.30;99.90
17172;DHT22;8701;50.150;8.756;2022-12-18T01:03:26;-5.30;99.90
17172;DHT22;8701;50.150;8.756;2022-12-18T01:07:29;-5.10;99.90
17172;DHT22;8701;50.150;8.756;2022-12-18T01:11:31;-5.30;99.90
17172;DHT22;8701;50.150;8.756;2022-12-18T01:15:34;-5.20;99.90
17172;DHT22;8701;50.150;8.756;2022-12-18T01:19:39;-5.20;99.90
17172;DHT22;8701;50.150;8.756;2022-12-18T01:23:43;-5.20;99.90
17172;DHT22;8701;50.150;8.756;2022-12-18T01:27:46;-5.30;99.90
17172;DHT22;8701;50.150;8.756;2022-12-18T01:31:48;-5.30;99.90
17172;DHT22;8701;50.150;8.756;2022-12-18T01:35:53;-5.40;99.90
17172;DHT22;8701;50.150;8.756;2022-12-18T01:39:55;-5.40;99.90
17172;DHT22;8701;50.150;8.756;2022-12-18T01:43:58;-5.40;99.90
17172;DHT22;8701;50.150;8.756;2022-12-18T01:48:03;-5.40;99.90
17172;DHT22;8701;50.150;8.756;2022-12-18T01:52:08;-5.50;99.90
17172;DHT22;8701;50.150;8.756;2022-12-18T01:56:13;-5.40;99.90
17172;DHT22;8701;50.150;8.756;2022-12-18T02:00:19;-5.60;99.90
17172;DHT22;8701;50.150;8.756;2022-12-18T02:04:22;-5.50;99.90
17172;DHT22;8701;50.150;8.756;2022-12-18T02:08:33;-5.70;99.90
17172;DHT22;8701;50.150;8.756;2022-12-18T02:12:43;-5.70;99.90
17172;DHT22;8701;50.150;8.756;2022-12-18T02:16:51;-5.70;99.90
17172;DHT22;8701;50.150;8.756;2022-12-18T02:21:00;-5.70;99.90
17172;DHT22;8701;50.150;8.756;2022-12-18T02:25:17;-5.70;99.90
17172;DHT22;8701;50.150;8.756;2022-12-18T02:29:27;-5.70;99.90
17172;DHT22;8701;50.150;8.756;2022-12-18T02:33:33;-5.80;99.90
17172;DHT22;8701;50.150;8.756;2022-12-18T02:37:38;-5.70;99.90
17172;DHT22;8701;50.150;8.756;2022-12-18T02:41:42;-5.60;99.90
17172;DHT22;8701;50.150;8.756;2022-12-18T02:45:51;-5.60;99.90
17172;DHT22;8701;50.150;8.756;2022-12-18T02:50:00;-5.70;99.90
17172;DHT22;8701;50.150;8.756;2022-12-18T02:54:10;-5.80;99.90
17172;DHT22;8701;50.150;8.756;2022-12-18T02:58:26;-5.80;99.90
17172;DHT22;8701;50.150;8.756;2022-12-18T03:02:39;-5.70;99.90
17172;DHT22;8701;50.150;8.756;2022-12-18T03:06:48;-6.00;99.90
17172;DHT22;8701;50.150;8.756;2022-12-18T03:10:56;-6.10;99.90
17172;DHT22;8701;50.150;8.756;2022-12-18T03:15:02;-6.00;99.90
17172;DHT22;8701;50.150;8.756;2022-12-18T03:19:11;-6.00;99.90
17172;DHT22;8701;50.150;8.756;2022-12-18T03:23:20;-6.00;99.90
17172;DHT22;8701;50.150;8.756;2022-12-18T03:27:24;-5.90;99.90
17172;DHT22;8701;50.150;8.756;2022-12-18T03:31:32;-5.90;99.90
17172;DHT22;8701;50.150;8.756;2022-12-18T03:35:41;-6.10;99.90
17172;DHT22;8701;50.150;8.756;2022-12-18T03:39:46;-6.10;99.90
17172;DHT22;8701;50.150;8.756;2022-12-18T03:43:51;-6.00;99.90
17172;DHT22;8701;50.150;8.756;2022-12-18T03:48:00;-6.00;99.90
17172;DHT22;8701;50.150;8.756;2022-12-18T03:52:11;-6.00;99.90
17172;DHT22;8701;50.150;8.756;2022-12-18T03:56:16;-6.20;99.90
17172;DHT22;8701;50.150;8.756;2022-12-18T04:00:20;-6.20;99.90
17172;DHT22;8701;50.150;8.756;2022-12-18T04:04:35;-6.20;99.90
17172;DHT22;8701;50.150;8.756;2022-12-18T04:08:41;-6.20;99.90
17172;DHT22;8701;50.150;8.756;2022-12-18T04:12:46;-6.10;99.90
17172;DHT22;8701;50.150;8.756;2022-12-18T04:16:49;-6.20;99.90
17172;DHT22;8701;50.150;8.756;2022-12-18T04:20:55;-6.30;99.90
17172;DHT22;8701;50.150;8.756;2022-12-18T04:24:59;-6.40;99.90
17172;DHT22;8701;50.150;8.756;2022-12-18T04:29:09;-6.50;99.90
17172;DHT22;8701;50.150;8.756;2022-12-18T04:33:13;-6.50;99.90
17172;DHT22;8701;50.150;8.756;2022-12-18T04:37:18;-6.50;99.90
17172;DHT22;8701;50.150;8.756;2022-12-18T04:41:23;-6.30;99.90
17172;DHT22;8701;50.150;8.756;2022-12-18T04:45:27;-6.40;99.90
17172;DHT22;8701;50.150;8.756;2022-12-18T04:49:30;-6.30;99.90
17172;DHT22;8701;50.150;8.756;2022-12-18T04:53:32;-6.20;99.90
17172;DHT22;8701;50.150;8.756;2022-12-18T04:57:36;-6.30;99.90
17172;DHT22;8701;50.150;8.756;2022-12-18T05:01:38;-6.40;99.90
17172;DHT22;8701;50.150;8.756;2022-12-18T05:05:40;-6.40;99.90
17172;DHT22;8701;50.150;8.756;2022-12-18T05:09:42;-6.40;99.90
17172;DHT22;8701;50.150;8.756;2022-12-18T05:13:46;-6.30;99.90
17172;DHT22;8701;50.150;8.756;2022-12-18T05:17:48;-6.40;99.90
17172;DHT22;8701;50.150;8.756;2022-12-18T05:21:50;-6.40;99.90
17172;DHT22;8701;50.150;8.756;2022-12-18T05:25:54;-6.30;99.90
17172;DHT22;8701;50.150;8.756;2022-12-18T05:29:57;-6.30;99.90
17172;DHT22;8701;50.150;8.756;2022-12-18T05:34:00;-6.10;99.90
17172;DHT22;8701;50.150;8.756;2022-12-18T05:38:02;-6.20;99.90
17172;DHT22;8701;50.150;8.756;2022-12-18T05:42:04;-6.20;99.90
17172;DHT22;8701;50.150;8.756;2022-12-18T05:46:11;-6.20;99.90
17172;DHT22;8701;50.150;8.756;2022-12-18T05:50:13;-6.20;99.90
17172;DHT22;8701;50.150;8.756;2022-12-18T05:54:16;-6.20;99.90
17172;DHT22;8701;50.150;8.756;2022-12-18T05:58:18;-6.30;99.90
17172;DHT22;8701;50.150;8.756;2022-12-18T06:02:22;-6.40;99.90
17172;DHT22;8701;50.150;8.756;2022-12-18T06:06:26;-6.40;99.90
17172;DHT22;8701;50.150;8.756;2022-12-18T06:10:29;-6.40;99.90
17172;DHT22;8701;50.150;8.756;2022-12-18T06:14:32;-6.40;99.90
17172;DHT22;8701;50.150;8.756;2022-12-18T06:18:35;-6.50;99.90
17172;DHT22;8701;50.150;8.756;2022-12-18T06:22:37;-6.50;99.90
17172;DHT22;8701;50.150;8.756;2022-12-18T06:26:40;-6.50;99.90
17172;DHT22;8701;50.150;8.756;2022-12-18T06:30:43;-6.50;99.90
17172;DHT22;8701;50.150;8.756;2022-12-18T06:34:47;-6.60;99.90
17172;DHT22;8701;50.150;8.756;2022-12-18T06:38:49;-6.60;99.90
17172;DHT22;8701;50.150;8.756;2022-12-18T06:42:51;-6.60;99.90
17172;DHT22;8701;50.150;8.756;2022-12-18T06:46:54;-6.50;99.90
17172;DHT22;8701;50.150;8.756;2022-12-18T06:50:58;-6.60;99.90
17172;DHT22;8701;50.150;8.756;2022-12-18T06:55:00;-6.50;99.90
17172;DHT22;8701;50.150;8.756;2022-12-18T06:59:03;-6.60;99.90
17172;DHT22;8701;50.150;8.756;2022-12-18T07:03:05;-6.60;99.90
17172;DHT22;8701;50.150;8.756;2022-12-18T07:07:09;-6.50;99.90
17172;DHT22;8701;50.150;8.756;2022-12-18T07:11:12;-6.40;99.90
17172;DHT22;8701;50.150;8.756;2022-12-18T07:15:16;-6.40;99.90
17172;DHT22;8701;50.150;8.756;2022-12-18T07:19:18;-6.50;99.90
17172;DHT22;8701;50.150;8.756;2022-12-18T07:23:22;-6.50;99.90
17172;DHT22;8701;50.150;8.756;2022-12-18T07:27:24;-6.50;99.90
17172;DHT22;8701;50.150;8.756;2022-12-18T07:31:27;-6.50;99.90
17172;DHT22;8701;50.150;8.756;2022-12-18T07:35:29;-6.50;99.90
17172;DHT22;8701;50.150;8.756;2022-12-18T07:39:33;-6.30;99.90
17172;DHT22;8701;50.150;8.756;2022-12-18T07:43:35;-6.50;99.90
17172;DHT22;8701;50.150;8.756;2022-12-18T07:47:38;-6.50;99.90
17172;DHT22;8701;50.150;8.756;2022-12-18T07:51:42;-6.60;99.90
17172;DHT22;8701;50.150;8.756;2022-12-18T07:55:48;-6.70;99.90
17172;DHT22;8701;50.150;8.756;2022-12-18T07:59:50;-6.50;99.90
17172;DHT22;8701;50.150;8.756;2022-12-18T08:03:52;-6.50;99.90
17172;DHT22;8701;50.150;8.756;2022-12-18T08:07:55;-6.40;99.90
17172;DHT22;8701;50.150;8.756;2022-12-18T08:11:59;-6.30;99.90
17172;DHT22;8701;50.150;8.756;2022-12-18T08:16:04;-6.20;99.90
17172;DHT22;8701;50.150;8.756;2022-12-18T08:20:08;-6.20;99.90
17172;DHT22;8701;50.150;8.756;2022-12-18T08:24:10;-6.10;99.90
17172;DHT22;8701;50.150;8.756;2022-12-18T08:28:14;-6.10;99.90
17172;DHT22;8701;50.150;8.756;2022-12-18T08:32:20;-6.10;99.90
17172;DHT22;8701;50.150;8.756;2022-12-18T08:36:23;-6.00;99.90
17172;DHT22;8701;50.150;8.756;2022-12-18T08:40:26;-5.80;99.90
17172;DHT22;8701;50.150;8.756;2022-12-18T08:44:29;-5.80;99.90
17172;DHT22;8701;50.150;8.756;2022-12-18T08:48:40;-5.70;99.90
17172;DHT22;8701;50.150;8.756;2022-12-18T08:52:42;-5.60;99.90
17172;DHT22;8701;50.150;8.756;2022-12-18T08:56:45;-5.40;99.90
17172;DHT22;8701;50.150;8.756;2022-12-18T09:00:48;-5.40;99.90
17172;DHT22;8701;50.150;8.756;2022-12-18T09:04:51;-5.20;99.90
17172;DHT22;8701;50.150;8.756;2022-12-18T09:08:53;-5.20;99.90
17172;DHT22;8701;50.150;8.756;2022-12-18T09:12:55;-5.10;99.90
17172;DHT22;8701;50.150;8.756;2022-12-18T09:16:59;-5.00;99.90
17172;DHT22;8701;50.150;8.756;2022-12-18T09:21:08;-4.80;99.90
17172;DHT22;8701;50.150;8.756;2022-12-18T09:25:12;-4.70;99.90
17172;DHT22;8701;50.150;8.756;2022-12-18T09:29:15;-4.50;99.90
17172;DHT22;8701;50.150;8.756;2022-12-18T09:33:19;-4.30;99.90
17172;DHT22;8701;50.150;8.756;2022-12-18T09:37:21;-4.10;99.90
17172;DHT22;8701;50.150;8.756;2022-12-18T09:41:44;-3.90;99.90
17172;DHT22;8701;50.150;8.756;2022-12-18T09:45:51;-3.70;99.90
17172;DHT22;8701;50.150;8.756;2022-12-18T09:50:01;-3.50;99.90
17172;DHT22;8701;50.150;8.756;2022-12-18T09:54:14;-3.40;99.90
17172;DHT22;8701;50.150;8.756;2022-12-18T09:58:24;-2.80;99.90
17172;DHT22;8701;50.150;8.756;2022-12-18T10:02:30;-3.00;99.90
17172;DHT22;8701;50.150;8.756;2022-12-18T10:06:37;-3.00;99.90
17172;DHT22;8701;50.150;8.756;2022-12-18T10:10:47;-2.80;99.90
17172;DHT22;8701;50.150;8.756;2022-12-18T10:14:54;-2.70;99.90
17172;DHT22;8701;50.150;8.756;2022-12-18T10:19:09;-2.70;99.90
17172;DHT22;8701;50.150;8.756;2022-12-18T10:23:17;-2.70;99.90
17172;DHT22;8701;50.150;8.756;2022-12-18T10:27:24;-2.60;99.90
17172;DHT22;8701;50.150;8.756;2022-12-18T10:31:27;-2.50;99.90
17172;DHT22;8701;50.150;8.756;2022-12-18T10:35:29;-2.40;99.90
17172;DHT22;8701;50.150;8.756;2022-12-18T10:39:32;-2.40;99.90
17172;DHT22;8701;50.150;8.756;2022-12-18T10:43:36;-2.40;99.90
17172;DHT22;8701;50.150;8.756;2022-12-18T10:47:42;-2.20;99.90
17172;DHT22;8701;50.150;8.756;2022-12-18T10:51:46;-2.10;99.90
17172;DHT22;8701;50.150;8.756;2022-12-18T10:55:52;-2.10;99.90
17172;DHT22;8701;50.150;8.756;2022-12-18T10:59:57;-1.90;99.90
17172;DHT22;8701;50.150;8.756;2022-12-18T11:04:04;-1.80;99.90
17172;DHT22;8701;50.150;8.756;2022-12-18T11:08:20;-1.70;99.90
17172;DHT22;8701;50.150;8.756;2022-12-18T11:12:27;-1.70;99.90
17172;DHT22;8701;50.150;8.756;2022-12-18T11:16:36;-1.50;99.90
17172;DHT22;8701;50.150;8.756;2022-12-18T11:20:50;-1.40;99.90
17172;DHT22;8701;50.150;8.756;2022-12-18T11:25:03;-1.40;99.90
17172;DHT22;8701;50.150;8.756;2022-12-18T11:29:10;-1.20;99.90
17172;DHT22;8701;50.150;8.756;2022-12-18T11:33:20;-1.10;99.90
17172;DHT22;8701;50.150;8.756;2022-12-18T11:37:26;-1.10;99.90
17172;DHT22;8701;50.150;8.756;2022-12-18T11:41:34;-0.90;99.90
17172;DHT22;8701;50.150;8.756;2022-12-18T11:46:04;-0.60;99.90
17172;DHT22;8701;50.150;8.756;2022-12-18T11:50:13;-0.30;99.90
17172;DHT22;8701;50.150;8.756;2022-12-18T11:54:18;0.10;99.90
17172;DHT22;8701;50.150;8.756;2022-12-18T11:58:31;-0.10;99.90
17172;DHT22;8701;50.150;8.756;2022-12-18T12:03:05;0.00;99.90
17172;DHT22;8701;50.150;8.756;2022-12-18T12:07:21;0.20;99.90
17172;DHT22;8701;50.150;8.756;2022-12-18T12:11:36;0.30;99.90
17172;DHT22;8701;50.150;8.756;2022-12-18T12:15:46;0.20;99.90
17172;DHT22;8701;50.150;8.756;2022-12-18T12:20:00;0.00;99.90
17172;DHT22;8701;50.150;8.756;2022-12-18T12:24:14;0.10;99.90
17172;DHT22;8701;50.150;8.756;2022-12-18T12:28:31;0.20;99.90
17172;DHT22;8701;50.150;8.756;2022-12-18T12:32:49;0.00;99.90
17172;DHT22;8701;50.150;8.756;2022-12-18T12:37:04;-0.20;99.90
17172;DHT22;8701;50.150;8.756;2022-12-18T12:41:12;-0.40;99.90
17172;DHT22;8701;50.150;8.756;2022-12-18T12:45:34;-0.40;99.90
17172;DHT22;8701;50.150;8.756;2022-12-18T12:49:39;-0.40;99.90
17172;DHT22;8701;50.150;8.756;2022-12-18T12:53:50;-0.50;99.90
17172;DHT22;8701;50.150;8.756;2022-12-18T12:58:07;-0.50;99.90
17172;DHT22;8701;50.150;8.756;2022-12-18T13:02:20;-0.50;99.90
17172;DHT22;8701;50.150;8.756;2022-12-18T13:06:35;-0.50;99.90
17172;DHT22;8701;50.150;8.756;2022-12-18T13:10:42;-0.50;99.90
17172;DHT22;8701;50.150;8.756;2022-12-18T13:14:44;-0.60;99.90
17172;DHT22;8701;50.150;8.756;2022-12-18T13:18:51;-0.70;99.90
17172;DHT22;8701;50.150;8.756;2022-12-18T13:22:55;-0.70;99.90
17172;DHT22;8701;50.150;8.756;2022-12-18T13:26:59;-1.10;99.90
17172;DHT22;8701;50.150;8.756;2022-12-18T13:31:02;-1.10;99.90
17172;DHT22;8701;50.150;8.756;2022-12-18T13:39:47;-1.10;99.90
17172;DHT22;8701;50.150;8.756;2022-12-18T13:43:52;-1.10;99.90
17172;DHT22;8701;50.150;8.756;2022-12-18T13:47:55;-1.20;99.90
17172;DHT22;8701;50.150;8.756;2022-12-18T13:51:57;-1.30;99.90
17172;DHT22;8701;50.150;8.756;2022-12-18T13:56:00;-1.20;99.90
17172;DHT22;8701;50.150;8.756;2022-12-18T14:00:29;-1.30;99.90
17172;DHT22;8701;50.150;8.756;2022-12-18T14:04:33;-1.30;99.90
17172;DHT22;8701;50.150;8.756;2022-12-18T14:08:48;-1.40;99.90
17172;DHT22;8701;50.150;8.756;2022-12-18T14:12:51;-1.40;99.90
17172;DHT22;8701;50.150;8.756;2022-12-18T14:17:09;-1.40;99.90
17172;DHT22;8701;50.150;8.756;2022-12-18T14:21:26;-1.40;99.90
17172;DHT22;8701;50.150;8.756;2022-12-18T14:25:33;-1.30;99.90
17172;DHT22;8701;50.150;8.756;2022-12-18T14:29:35;-1.40;99.90
17172;DHT22;8701;50.150;8.756;2022-12-18T14:33:39;-1.40;99.90
17172;DHT22;8701;50.150;8.756;2022-12-18T14:37:42;-1.30;99.90
17172;DHT22;8701;50.150;8.756;2022-12-18T14:41:44;-1.30;99.90
17172;DHT22;8701;50.150;8.756;2022-12-18T14:45:48;-1.40;99.90
17172;DHT22;8701;50.150;8.756;2022-12-18T14:49:52;-1.40;99.90
17172;DHT22;8701;50.150;8.756;2022-12-18T14:53:56;-1.40;99.90
17172;DHT22;8701;50.150;8.756;2022-12-18T14:58:01;-1.50;99.90
17172;DHT22;8701;50.150;8.756;2022-12-18T15:02:13;-1.50;99.90
17172;DHT22;8701;50.150;8.756;2022-12-18T15:06:29;-1.50;99.90
17172;DHT22;8701;50.150;8.756;2022-12-18T15:10:33;-1.50;99.90
17172;DHT22;8701;50.150;8.756;2022-12-18T15:14:39;-1.50;99.90
17172;DHT22;8701;50.150;8.756;2022-12-18T15:18:43;-1.60;99.90
17172;DHT22;8701;50.150;8.756;2022-12-18T15:22:56;-1.50;99.90
17172;DHT22;8701;50.150;8.756;2022-12-18T15:27:00;-1.70;99.90
17172;DHT22;8701;50.150;8.756;2022-12-18T15:31:06;-1.60;99.90
17172;DHT22;8701;50.150;8.756;2022-12-18T15:35:24;-1.60;99.90
17172;DHT22;8701;50.150;8.756;2022-12-18T15:39:29;-1.70;99.90
17172;DHT22;8701;50.150;8.756;2022-12-18T15:43:33;-1.70;99.90
17172;DHT22;8701;50.150;8.756;2022-12-18T15:47:42;-1.70;99.90
17172;DHT22;8701;50.150;8.756;2022-12-18T15:51:44;-1.70;99.90
17172;DHT22;8701;50.150;8.756;2022-12-18T15:55:51;-1.80;99.90
17172;DHT22;8701;50.150;8.756;2022-12-18T16:00:14;-1.70;99.90
17172;DHT22;8701;50.150;8.756;2022-12-18T16:04:24;-1.70;99.90
17172;DHT22;8701;50.150;8.756;2022-12-18T16:08:27;-1.70;99.90
17172;DHT22;8701;50.150;8.756;2022-12-18T16:12:32;-1.70;99.90
17172;DHT22;8701;50.150;8.756;2022-12-18T16:21:55;-1.70;99.90
17172;DHT22;8701;50.150;8.756;2022-12-18T16:25:58;-1.70;99.90
17172;DHT22;8701;50.150;8.756;2022-12-18T16:30:03;-1.70;99.90
17172;DHT22;8701;50.150;8.756;2022-12-18T16:34:13;-1.70;99.90
17172;DHT22;8701;50.150;8.756;2022-12-18T16:38:16;-1.70;99.90
17172;DHT22;8701;50.150;8.756;2022-12-18T16:42:20;-1.70;99.90
17172;DHT22;8701;50.150;8.756;2022-12-18T16:46:24;-1.70;99.90
17172;DHT22;8701;50.150;8.756;2022-12-18T16:50:26;-1.70;99.90
17172;DHT22;8701;50.150;8.756;2022-12-18T16:54:28;-1.60;99.90
17172;DHT22;8701;50.150;8.756;2022-12-18T16:58:31;-1.60;99.90
17172;DHT22;8701;50.150;8.756;2022-12-18T17:02:35;-1.70;99.90
17172;DHT22;8701;50.150;8.756;2022-12-18T17:06:44;-1.70;99.90
17172;DHT22;8701;50.150;8.756;2022-12-18T17:10:51;-1.70;99.90
17172;DHT22;8701;50.150;8.756;2022-12-18T17:14:54;-1.70;99.90
17172;DHT22;8701;50.150;8.756;2022-12-18T17:18:57;-1.70;99.90
17172;DHT22;8701;50.150;8.756;2022-12-18T17:23:00;-1.70;99.90
17172;DHT22;8701;50.150;8.756;2022-12-18T17:27:02;-1.60;99.90
17172;DHT22;8701;50.150;8.756;2022-12-18T17:31:10;-1.60;99.90
17172;DHT22;8701;50.150;8.756;2022-12-18T17:35:14;-1.60;99.90
17172;DHT22;8701;50.150;8.756;2022-12-18T17:39:19;-1.60;99.90
17172;DHT22;8701;50.150;8.756;2022-12-18T17:43:21;-1.60;99.90
17172;DHT22;8701;50.150;8.756;2022-12-18T17:47:23;-1.60;99.90
17172;DHT22;8701;50.150;8.756;2022-12-18T17:51:27;-1.60;99.90
17172;DHT22;8701;50.150;8.756;2022-12-18T17:55:30;-1.60;99.90
17172;DHT22;8701;50.150;8.756;2022-12-18T17:59:32;-1.60;99.90
17172;DHT22;8701;50.150;8.756;2022-12-18T18:03:35;-1.60;99.90
17172;DHT22;8701;50.150;8.756;2022-12-18T18:07:40;-1.60;99.90
17172;DHT22;8701;50.150;8.756;2022-12-18T18:11:42;-1.60;99.90
17172;DHT22;8701;50.150;8.756;2022-12-18T18:16:02;-1.60;99.90
17172;DHT22;8701;50.150;8.756;2022-12-18T18:20:05;-1.60;99.90
17172;DHT22;8701;50.150;8.756;2022-12-18T18:24:14;-1.50;99.90
17172;DHT22;8701;50.150;8.756;2022-12-18T18:28:16;-1.50;99.90
17172;DHT22;8701;50.150;8.756;2022-12-18T18:32:19;-1.50;99.90
17172;DHT22;8701;50.150;8.756;2022-12-18T18:36:23;-1.50;99.90
17172;DHT22;8701;50.150;8.756;2022-12-18T18:40:28;-1.50;99.90
17172;DHT22;8701;50.150;8.756;2022-12-18T18:44:30;-1.40;99.90
17172;DHT22;8701;50.150;8.756;2022-12-18T18:48:35;-1.40;99.90
17172;DHT22;8701;50.150;8.756;2022-12-18T18:52:37;-1.40;99.90
17172;DHT22;8701;50.150;8.756;2022-12-18T18:56:41;-1.40;99.90
17172;DHT22;8701;50.150;8.756;2022-12-18T19:00:43;-1.50;99.90
17172;DHT22;8701;50.150;8.756;2022-12-18T19:04:46;-1.40;99.90
17172;DHT22;8701;50.150;8.756;2022-12-18T19:08:49;-1.40;99.90
17172;DHT22;8701;50.150;8.756;2022-12-18T19:12:57;-1.40;99.90
17172;DHT22;8701;50.150;8.756;2022-12-18T19:17:18;-1.30;99.90
17172;DHT22;8701;50.150;8.756;2022-12-18T19:21:21;-1.40;99.90
17172;DHT22;8701;50.150;8.756;2022-12-18T19:25:24;-1.40;99.90
17172;DHT22;8701;50.150;8.756;2022-12-18T19:29:30;-1.20;99.90
17172;DHT22;8701;50.150;8.756;2022-12-18T19:33:34;-1.50;99.90
17172;DHT22;8701;50.150;8.756;2022-12-18T19:37:37;-1.40;99.90
17172;DHT22;8701;50.150;8.756;2022-12-18T19:41:40;-1.40;99.90
17172;DHT22;8701;50.150;8.756;2022-12-18T19:45:44;-1.50;99.90
17172;DHT22;8701;50.150;8.756;2022-12-18T19:49:47;-1.50;99.90
17172;DHT22;8701;50.150;8.756;2022-12-18T19:53:50;-1.50;99.90
17172;DHT22;8701;50.150;8.756;2022-12-18T19:57:52;-1.50;99.90
17172;DHT22;8701;50.150;8.756;2022-12-18T20:01:56;-1.50;99.90
17172;DHT22;8701;50.150;8.756;2022-12-18T20:06:07;-1.40;99.90
17172;DHT22;8701;50.150;8.756;2022-12-18T20:10:12;-1.40;99.90
17172;DHT22;8701;50.150;8.756;2022-12-18T20:14:17;-1.30;99.90
17172;DHT22;8701;50.150;8.756;2022-12-18T20:18:21;-1.30;99.90
17172;DHT22;8701;50.150;8.756;2022-12-18T20:22:30;-1.30;99.90
17172;DHT22;8701;50.150;8.756;2022-12-18T20:26:33;-1.30;99.90
17172;DHT22;8701;50.150;8.756;2022-12-18T20:30:35;-1.40;99.90
17172;DHT22;8701;50.150;8.756;2022-12-18T20:34:40;-1.30;99.90
17172;DHT22;8701;50.150;8.756;2022-12-18T20:38:53;-1.30;99.90
17172;DHT22;8701;50.150;8.756;2022-12-18T20:43:04;-1.20;99.90
17172;DHT22;8701;50.150;8.756;2022-12-18T20:47:08;-1.40;99.90
17172;DHT22;8701;50.150;8.756;2022-12-18T20:51:15;-1.40;99.90
17172;DHT22;8701;50.150;8.756;2022-12-18T20:55:22;-1.30;99.90
17172;DHT22;8701;50.150;8.756;2022-12-18T20:59:32;-1.30;99.90
17172;DHT22;8701;50.150;8.756;2022-12-18T21:03:44;-1.30;99.90
17172;DHT22;8701;50.150;8.756;2022-12-18T21:07:53;-1.30;99.90
17172;DHT22;8701;50.150;8.756;2022-12-18T21:12:14;-1.30;99.90
17172;DHT22;8701;50.150;8.756;2022-12-18T21:16:41;-1.30;99.90
17172;DHT22;8701;50.150;8.756;2022-12-18T21:20:45;-1.20;99.90
17172;DHT22;8701;50.150;8.756;2022-12-18T21:24:57;-1.20;99.90
17172;DHT22;8701;50.150;8.756;2022-12-18T21:29:01;-1.10;99.90
17172;DHT22;8701;50.150;8.756;2022-12-18T21:33:08;-1.20;99.90
17172;DHT22;8701;50.150;8.756;2022-12-18T21:37:12;-1.00;99.90
17172;DHT22;8701;50.150;8.756;2022-12-18T21:41:23;-1.10;99.90
17172;DHT22;8701;50.150;8.756;2022-12-18T21:45:45;-1.10;99.90
17172;DHT22;8701;50.150;8.756;2022-12-18T21:49:57;-1.10;99.90
17172;DHT22;8701;50.150;8.756;2022-12-18T21:53:59;-1.10;99.90
17172;DHT22;8701;50.150;8.756;2022-12-18T21:58:07;-1.10;99.90
17172;DHT22;8701;50.150;8.756;2022-12-18T22:02:21;-1.10;99.90
17172;DHT22;8701;50.150;8.756;2022-12-18T22:06:31;-1.10;99.90
17172;DHT22;8701;50.150;8.756;2022-12-18T22:10:34;-0.80;99.90
17172;DHT22;8701;50.150;8.756;2022-12-18T22:14:39;-1.10;99.90
17172;DHT22;8701;50.150;8.756;2022-12-18T22:18:42;-1.10;99.90
17172;DHT22;8701;50.150;8.756;2022-12-18T22:22:45;-1.20;99.90
17172;DHT22;8701;50.150;8.756;2022-12-18T22:26:49;-1.20;99.90
17172;DHT22;8701;50.150;8.756;2022-12-18T22:30:54;-1.20;99.90
17172;DHT22;8701;50.150;8.756;2022-12-18T22:35:07;-1.10;99.90
17172;DHT22;8701;50.150;8.756;2022-12-18T22:39:13;-1.10;99.90
17172;DHT22;8701;50.150;8.756;2022-12-18T22:43:17;-1.10;99.90
17172;DHT22;8701;50.150;8.756;2022-12-18T22:47:22;-1.10;99.90
17172;DHT22;8701;50.150;8.756;2022-12-18T22:51:25;-1.10;99.90
17172;DHT22;8701;50.150;8.756;2022-12-18T22:55:29;-1.10;99.90
17172;DHT22;8701;50.150;8.756;2022-12-18T22:59:31;-1.10;99.90
17172;DHT22;8701;50.150;8.756;2022-12-18T23:03:35;-1.00;99.90
17172;DHT22;8701;50.150;8.756;2022-12-18T23:07:37;-1.00;99.90
17172;DHT22;8701;50.150;8.756;2022-12-18T23:11:39;-1.00;99.90
17172;DHT22;8701;50.150;8.756;2022-12-18T23:15:44;-1.00;99.90
17172;DHT22;8701;50.150;8.756;2022-12-18T23:19:48;-1.00;99.90
17172;DHT22;8701;50.150;8.756;2022-12-18T23:23:52;-1.00;99.90
17172;DHT22;8701;50.150;8.756;2022-12-18T23:27:54;-1.00;99.90
17172;DHT22;8701;50.150;8.756;2022-12-18T23:31:56;-1.00;99.90
17172;DHT22;8701;50.150;8.756;2022-12-18T23:36:02;-1.00;99.90
17172;DHT22;8701;50.150;8.756;2022-12-18T23:40:05;-1.00;99.90
17172;DHT22;8701;50.150;8.756;2022-12-18T23:44:11;-0.90;99.90
17172;DHT22;8701;50.150;8.756;2022-12-18T23:48:15;-0.90;99.90
17172;DHT22;8701;50.150;8.756;2022-12-18T23:52:19;-0.90;99.90
17172;DHT22;8701;50.150;8.756;2022-12-18T23:56:22;-0.80;99.90
